Time;durP1;ratioP1;P1;durP2;ratioP2;P2;SDS_P1;SDS_P2;PMS_P1;PMS_P2;Temp;Humidity;BMP_temperature;BMP_pressure;BME280_temperature;BME280_humidity;BME280_pressure;Samples;Min_cycle;Max_cycle;Signal;HPM_P1;HPM_P2
2023/07/31 00:07:56;;;;;;;2.30;2.10;;;;;;;-147.24;100.00;62006.19;41330567;28;20046;-77
2023/07/31 00:27:57;;;;;;;2.08;1.88;;;;;;;-147.24;100.00;62006.19;41320123;28;20073;-78
2023/07/31 00:47:58;;;;;;;1.83;1.65;;;;;;;-147.24;100.00;62006.19;41339707;28;20046;-77
2023/07/31 01:08:08;;;;;;;3.25;2.03;;;;;;;-147.24;100.00;62006.19;41366468;28;20092;-76
2023/07/31 01:28:39;;;;;;;4.43;2.17;;;;;;;-147.24;100.00;62006.19;41345114;28;20057;-78
2023/07/31 01:48:40;;;;;;;5.63;2.70;;;;;;;-147.24;100.00;62006.19;41336599;28;20133;-76
2023/07/31 02:08:40;;;;;;;4.10;3.13;;;;;;;-147.24;100.00;62006.19;41352221;28;20118;-77
2023/07/31 02:28:43;;;;;;;5.75;3.42;;;;;;;-147.24;100.00;62006.19;41343741;28;20081;-76
2023/07/31 02:48:43;;;;;;;4.45;2.70;;;;;;;-147.24;100.00;62006.19;41340126;28;20405;-77
2023/07/31 03:08:43;;;;;;;3.15;2.38;;;;;;;-147.24;100.00;62006.19;41348300;28;20038;-77
2023/07/31 03:28:44;;;;;;;3.58;1.98;;;;;;;-147.24;100.00;62006.19;41337684;28;20050;-77
2023/07/31 03:48:44;;;;;;;3.67;2.30;;;;;;;-147.24;100.00;62006.19;41339623;28;20050;-77
2023/07/31 04:08:45;;;;;;;4.25;2.00;;;;;;;-147.24;100.00;62006.19;41327462;28;20525;-77
2023/07/31 04:28:45;;;;;;;2.60;1.98;;;;;;;-147.24;100.00;62006.19;41313049;28;20060;-81
2023/07/31 04:48:45;;;;;;;2.20;1.80;;;;;;;-147.24;100.00;62006.19;41290957;28;20050;-77
2023/07/31 05:08:48;;;;;;;2.30;1.50;;;;;;;-147.24;100.00;62006.19;41313330;28;20042;-78
2023/07/31 05:28:48;;;;;;;2.63;1.52;;;;;;;-147.24;100.00;62006.19;41338253;28;20050;-79
2023/07/31 05:48:49;;;;;;;2.38;1.58;;;;;;;-147.24;100.00;62006.19;41326761;28;20045;-79
2023/07/31 06:08:49;;;;;;;1.55;1.38;;;;;;;-147.24;100.00;62006.19;41360177;28;20376;-83
2023/07/31 06:28:50;;;;;;;3.78;1.52;;;;;;;-147.24;100.00;62006.19;41379641;28;20050;-89
2023/07/31 06:48:52;;;;;;;2.67;1.50;;;;;;;-147.24;100.00;62006.19;41381794;28;20046;-84
2023/07/31 07:08:53;;;;;;;8.45;1.40;;;;;;;-147.24;100.00;62006.19;41305468;28;20049;-84
2023/07/31 07:28:56;;;;;;;23.08;4.90;;;;;;;-147.24;100.00;62006.19;41304088;28;20073;-83
2023/07/31 07:48:56;;;;;;;11.80;3.30;;;;;;;-147.24;100.00;62006.19;41344757;28;20409;-81
2023/07/31 08:08:57;;;;;;;6.90;2.20;;;;;;;-147.24;100.00;62006.19;41333092;28;20034;-75
2023/07/31 08:28:57;;;;;;;3.15;1.50;;;;;;;-147.24;100.00;62006.19;41296586;28;20515;-77
2023/07/31 08:48:59;;;;;;;2.50;1.30;;;;;;;-147.24;100.00;62006.19;41333357;28;20058;-76
2023/07/31 09:09:00;;;;;;;4.40;1.67;;;;;;;-147.24;100.00;62006.19;41305961;28;20049;-78
2023/07/31 09:29:03;;;;;;;3.63;1.33;;;;;;;-147.24;100.00;62006.19;41366513;28;20046;-75
2023/07/31 09:49:12;;;;;;;2.75;1.33;;;;;;;-147.24;100.00;62006.19;41385855;28;20501;-76
2023/07/31 10:09:18;;;;;;;3.65;1.27;;;;;;;-147.24;100.00;62006.19;41383918;28;20153;-76
2023/07/31 10:29:19;;;;;;;3.33;1.38;;;;;;;-147.24;100.00;62006.19;41371485;28;20045;-76
2023/07/31 10:49:23;;;;;;;8.75;1.38;;;;;;;-147.24;100.00;62006.19;41382458;28;20489;-80
2023/07/31 11:09:28;;;;;;;3.85;1.30;;;;;;;-147.24;100.00;62006.19;41357709;28;20050;-75
2023/07/31 11:29:28;;;;;;;4.38;1.10;;;;;;;-147.24;100.00;62006.19;41289143;28;20061;-77
2023/07/31 11:49:29;;;;;;;4.82;1.10;;;;;;;-147.24;100.00;62006.19;41306500;28;20049;-77
2023/07/31 12:09:30;;;;;;;5.72;1.33;;;;;;;-147.24;100.00;62006.19;41310175;28;20460;-76
2023/07/31 12:29:35;;;;;;;2.70;1.00;;;;;;;-147.24;100.00;62006.19;41257917;28;20050;-78
2023/07/31 12:49:36;;;;;;;2.45;1.23;;;;;;;-147.24;100.00;62006.19;41269579;28;20424;-78
2023/07/31 13:09:36;;;;;;;3.50;1.20;;;;;;;-147.24;100.00;62006.19;41312797;28;20046;-76
2023/07/31 13:29:37;;;;;;;3.75;1.08;;;;;;;-147.24;100.00;62006.19;41287118;28;20502;-75
2023/07/31 13:49:38;;;;;;;2.58;1.63;;;;;;;-147.24;100.00;62006.19;41320964;28;20046;-75
2023/07/31 14:09:40;;;;;;;1.38;1.00;;;;;;;-147.24;100.00;62006.19;41340500;28;20060;-78
2023/07/31 14:29:40;;;;;;;3.08;1.25;;;;;;;-147.24;100.00;62006.19;41415039;28;20082;-78
2023/07/31 14:49:41;;;;;;;1.88;1.00;;;;;;;-147.24;100.00;62006.19;41393616;28;20062;-79
2023/07/31 15:09:41;;;;;;;1.67;1.23;;;;;;;-147.24;100.00;62006.19;41326637;28;20535;-82
2023/07/31 15:29:41;;;;;;;1.90;1.05;;;;;;;-147.24;100.00;62006.19;41355325;28;20038;-82
2023/07/31 15:49:42;;;;;;;2.35;1.00;;;;;;;-147.24;100.00;62006.19;41320180;28;20134;-83
2023/07/31 16:09:43;;;;;;;3.38;1.50;;;;;;;-147.24;100.00;62006.19;41332913;28;20069;-79
2023/07/31 16:29:44;;;;;;;2.97;1.20;;;;;;;-147.24;100.00;62006.19;41358062;28;20038;-85
2023/07/31 16:49:44;;;;;;;3.78;1.40;;;;;;;-147.24;100.00;62006.19;41362649;28;20042;-86
2023/07/31 17:09:45;;;;;;;5.05;1.77;;;;;;;-147.24;100.00;62006.19;41337255;28;20034;-82
2023/07/31 17:29:45;;;;;;;6.63;1.63;;;;;;;-147.24;100.00;62006.19;41343930;28;20433;-79
2023/07/31 17:49:47;;;;;;;3.40;1.38;;;;;;;-147.24;100.00;62006.19;41311238;28;20205;-80
2023/07/31 18:09:47;;;;;;;2.65;1.23;;;;;;;-147.24;100.00;62006.19;41333842;28;20529;-81
2023/07/31 18:29:49;;;;;;;2.15;1.48;;;;;;;-147.24;100.00;62006.19;41313751;28;20061;-83
2023/07/31 18:49:50;;;;;;;6.53;1.77;;;;;;;-147.24;100.00;62006.19;41304612;28;20043;-85
2023/07/31 19:09:50;;;;;;;3.08;1.30;;;;;;;-147.24;100.00;62006.19;41334487;28;20187;-77
2023/07/31 19:29:51;;;;;;;5.35;1.80;;;;;;;-147.24;100.00;62006.19;41360193;28;20046;-81
2023/07/31 19:49:55;;;;;;;3.10;1.85;;;;;;;-147.24;100.00;62006.19;41335842;28;20096;-81
2023/07/31 20:09:58;;;;;;;4.13;2.07;;;;;;;-147.24;100.00;62006.19;41334292;28;20054;-83
2023/07/31 20:29:58;;;;;;;4.60;1.83;;;;;;;-147.24;100.00;62006.19;41356709;28;20388;-82
2023/07/31 20:49:59;;;;;;;4.03;2.22;;;;;;;-147.24;100.00;62006.19;41340456;28;20125;-84
2023/07/31 21:09:59;;;;;;;6.40;2.13;;;;;;;-147.24;100.00;62006.19;41344155;28;20081;-80
2023/07/31 21:30:00;;;;;;;6.22;2.30;;;;;;;-147.24;100.00;62006.19;41384697;28;20053;-81
2023/07/31 21:50:01;;;;;;;3.97;2.58;;;;;;;-147.24;100.00;62006.19;41368976;28;20151;-80
2023/07/31 22:10:01;;;;;;;4.15;2.10;;;;;;;-147.24;100.00;62006.19;41357777;28;20110;-80
2023/07/31 22:30:03;;;;;;;6.90;2.63;;;;;;;-147.24;100.00;62006.19;41361367;28;20042;-80
2023/07/31 22:50:04;;;;;;;5.40;2.45;;;;;;;-147.24;100.00;62006.19;41352878;28;20034;-80
2023/07/31 23:10:05;;;;;;;3.13;2.25;;;;;;;-147.24;100.00;62006.19;41352649;28;20062;-80
2023/07/31 23:30:06;;;;;;;4.57;2.33;;;;;;;-147.24;100.00;62006.19;41332360;28;21650;-79
2023/07/31 23:50:12;;;;;;;3.50;2.40;;;;;;;-147.24;100.00;62006.19;41309446;28;20050;-77
